Time;durP1;ratioP1;P1;durP2;ratioP2;P2;SDS_P1;SDS_P2;PMS_P1;PMS_P2;Temp;Humidity;BMP_temperature;BMP_pressure;BME280_temperature;BME280_humidity;BME280_pressure;Samples;Min_cycle;Max_cycle;Signal;HPM_P1;HPM_P2
2021/08/21 00:00:20;;;;;;;7.07;4.93;;;;;;;;;;5142839;27;20047;-84
2021/08/21 00:02:47;;;;;;;6.85;4.97;;;;;;;;;;5142748;27;20558;-84
2021/08/21 00:05:15;;;;;;;7.32;5.72;;;;;;;;;;5143033;27;20457;-84
2021/08/21 00:07:42;;;;;;;6.95;5.32;;;;;;;;;;5143901;27;20043;-84
2021/08/21 00:10:10;;;;;;;7.70;5.03;;;;;;;;;;5158852;27;20054;-85
2021/08/21 00:12:37;;;;;;;7.45;5.07;;;;;;;;;;5159823;27;20035;-84
2021/08/21 00:15:06;;;;;;;7.45;5.25;;;;;;;;;;5138088;27;20429;-84
2021/08/21 00:17:33;;;;;;;7.13;5.85;;;;;;;;;;5138391;27;20092;-84
2021/08/21 00:20:00;;;;;;;7.25;5.03;;;;;;;;;;5138054;27;20051;-84
2021/08/21 00:22:28;;;;;;;6.25;5.07;;;;;;;;;;5138637;27;20385;-84
2021/08/21 00:24:55;;;;;;;6.95;5.30;;;;;;;;;;5138628;27;20043;-85
2021/08/21 00:27:23;;;;;;;7.38;4.95;;;;;;;;;;5139151;27;20156;-85
2021/08/21 00:29:50;;;;;;;7.15;5.15;;;;;;;;;;5138284;27;20058;-85
2021/08/21 00:32:17;;;;;;;7.63;6.10;;;;;;;;;;5139156;27;20093;-84
2021/08/21 00:34:43;;;;;;;9.45;5.55;;;;;;;;;;5141072;27;20167;-84
2021/08/21 00:37:10;;;;;;;7.95;5.10;;;;;;;;;;5144217;27;20055;-84
2021/08/21 00:39:39;;;;;;;7.07;5.50;;;;;;;;;;5142832;28;20051;-85
2021/08/21 00:42:08;;;;;;;6.82;5.13;;;;;;;;;;5142632;28;20064;-85
2021/08/21 00:44:35;;;;;;;7.93;5.35;;;;;;;;;;5141749;28;20047;-85
2021/08/21 00:47:07;;;;;;;9.10;5.43;;;;;;;;;;5142079;28;20108;-85
2021/08/21 00:49:35;;;;;;;6.55;5.03;;;;;;;;;;5142443;28;20046;-84
2021/08/21 00:52:04;;;;;;;8.65;5.50;;;;;;;;;;5142436;28;20092;-85
2021/08/21 00:54:31;;;;;;;8.00;5.35;;;;;;;;;;5141947;28;20384;-85
2021/08/21 00:57:01;;;;;;;7.60;5.82;;;;;;;;;;5140692;28;20061;-86
2021/08/21 00:59:30;;;;;;;7.43;5.32;;;;;;;;;;5140588;28;20452;-85
2021/08/21 01:01:58;;;;;;;7.70;5.70;;;;;;;;;;5141446;28;20050;-85
2021/08/21 01:04:24;;;;;;;7.75;5.47;;;;;;;;;;5140232;28;20424;-85
2021/08/21 01:06:51;;;;;;;8.90;6.00;;;;;;;;;;5140387;28;20092;-85
2021/08/21 01:09:18;;;;;;;7.53;5.90;;;;;;;;;;5139839;28;20039;-86
2021/08/21 01:11:46;;;;;;;7.60;5.10;;;;;;;;;;5140830;28;20484;-85
2021/08/21 01:14:15;;;;;;;7.75;5.38;;;;;;;;;;5146237;28;20523;-84
2021/08/21 01:16:41;;;;;;;8.00;6.35;;;;;;;;;;5147788;28;20050;-84
2021/08/21 01:19:09;;;;;;;7.95;5.80;;;;;;;;;;5142393;28;20092;-85
2021/08/21 01:21:36;;;;;;;6.45;5.25;;;;;;;;;;5142230;28;20075;-85
2021/08/21 01:24:02;;;;;;;6.85;5.43;;;;;;;;;;5142313;28;20568;-84
2021/08/21 01:26:29;;;;;;;8.13;5.75;;;;;;;;;;5142358;28;20043;-85
2021/08/21 01:28:57;;;;;;;6.72;5.45;;;;;;;;;;5142177;28;20040;-85
2021/08/21 01:31:24;;;;;;;7.07;6.00;;;;;;;;;;5143083;28;20491;-85
2021/08/21 01:33:51;;;;;;;7.32;6.00;;;;;;;;;;5142359;28;20055;-85
2021/08/21 01:36:17;;;;;;;7.35;5.85;;;;;;;;;;5142102;28;20115;-84
2021/08/21 01:38:56;;;;;;;7.25;6.05;;;;;;;;;;5101524;27;1160389;-85
2021/08/21 01:41:24;;;;;;;8.07;6.28;;;;;;;;;;5143156;27;20054;-84
2021/08/21 01:43:51;;;;;;;8.32;6.10;;;;;;;;;;5143293;27;20047;-85
2021/08/21 01:46:19;;;;;;;6.57;5.70;;;;;;;;;;5142319;27;20111;-84
2021/08/21 01:48:46;;;;;;;7.60;5.75;;;;;;;;;;5143129;27;20055;-84
2021/08/21 01:51:13;;;;;;;7.38;5.60;;;;;;;;;;5144032;27;20057;-85
2021/08/21 01:53:40;;;;;;;7.65;6.00;;;;;;;;;;5144005;27;20047;-85
2021/08/21 01:56:09;;;;;;;7.03;5.45;;;;;;;;;;5143574;27;20042;-85
2021/08/21 01:58:37;;;;;;;7.72;5.80;;;;;;;;;;5143533;27;20495;-86
2021/08/21 02:01:04;;;;;;;8.07;5.78;;;;;;;;;;5143480;27;20557;-86
2021/08/21 02:03:32;;;;;;;7.68;6.15;;;;;;;;;;5144144;27;20069;-84
2021/08/21 02:05:59;;;;;;;6.88;5.47;;;;;;;;;;5144123;27;20050;-84
2021/08/21 02:08:26;;;;;;;7.90;5.90;;;;;;;;;;5143740;27;20059;-84
2021/08/21 02:10:53;;;;;;;7.93;5.82;;;;;;;;;;5143592;27;20734;-84
2021/08/21 02:13:20;;;;;;;8.13;5.55;;;;;;;;;;5143506;27;20051;-85
2021/08/21 02:15:47;;;;;;;8.65;6.38;;;;;;;;;;5143179;27;20111;-86
2021/08/21 02:18:14;;;;;;;7.85;5.68;;;;;;;;;;5145909;27;20039;-86
2021/08/21 02:20:42;;;;;;;7.15;5.85;;;;;;;;;;5144249;27;20039;-85
2021/08/21 02:23:10;;;;;;;8.60;5.93;;;;;;;;;;5144617;27;20099;-85
2021/08/21 02:25:38;;;;;;;7.95;6.00;;;;;;;;;;5144006;27;20046;-85
2021/08/21 02:28:09;;;;;;;8.45;5.32;;;;;;;;;;5145599;27;20093;-85
2021/08/21 02:30:37;;;;;;;6.53;4.57;;;;;;;;;;5146689;27;20475;-85
2021/08/21 02:33:04;;;;;;;8.05;5.65;;;;;;;;;;5147156;27;20043;-86
2021/08/21 02:35:31;;;;;;;7.35;5.38;;;;;;;;;;5147187;27;20120;-85
2021/08/21 02:38:00;;;;;;;6.30;5.18;;;;;;;;;;5153561;27;20069;-85
2021/08/21 02:40:26;;;;;;;6.57;5.05;;;;;;;;;;5150035;27;20040;-85
2021/08/21 02:42:53;;;;;;;8.27;5.85;;;;;;;;;;5149526;27;20076;-85
2021/08/21 02:45:20;;;;;;;7.15;5.50;;;;;;;;;;5151727;27;20047;-86
2021/08/21 02:47:47;;;;;;;7.95;5.60;;;;;;;;;;5154797;27;20042;-85
2021/08/21 02:50:14;;;;;;;7.05;5.18;;;;;;;;;;5154380;28;20047;-86
2021/08/21 02:52:41;;;;;;;6.28;4.85;;;;;;;;;;5159738;27;20043;-85
2021/08/21 02:55:12;;;;;;;6.95;5.68;;;;;;;;;;5161005;27;20072;-85
2021/08/21 02:57:39;;;;;;;9.32;6.30;;;;;;;;;;5160254;27;20043;-85
2021/08/21 03:00:07;;;;;;;6.82;5.38;;;;;;;;;;5158847;27;20058;-85
2021/08/21 03:02:35;;;;;;;8.18;5.10;;;;;;;;;;5162117;27;20485;-86
2021/08/21 03:05:02;;;;;;;7.35;5.28;;;;;;;;;;5162705;27;20043;-86
2021/08/21 03:07:29;;;;;;;7.53;5.85;;;;;;;;;;5162362;27;20031;-85
2021/08/21 03:09:56;;;;;;;6.82;5.95;;;;;;;;;;5161766;27;20069;-85
2021/08/21 03:12:24;;;;;;;6.85;4.88;;;;;;;;;;5161391;27;20068;-83
2021/08/21 03:14:51;;;;;;;6.13;4.68;;;;;;;;;;5162346;27;20151;-83
2021/08/21 03:17:18;;;;;;;7.72;5.45;;;;;;;;;;5157859;27;20560;-84
2021/08/21 03:19:44;;;;;;;7.38;5.07;;;;;;;;;;5151618;27;20441;-84
2021/08/21 03:22:11;;;;;;;6.47;4.93;;;;;;;;;;5151320;27;20059;-83
2021/08/21 03:24:38;;;;;;;8.75;5.40;;;;;;;;;;5150285;27;20100;-85
2021/08/21 03:27:05;;;;;;;7.20;5.68;;;;;;;;;;5148658;27;20065;-84
2021/08/21 03:29:33;;;;;;;6.13;4.70;;;;;;;;;;5149493;27;20047;-85
2021/08/21 03:32:00;;;;;;;7.20;5.28;;;;;;;;;;5149879;27;20043;-85
2021/08/21 03:34:27;;;;;;;6.72;4.80;;;;;;;;;;5149099;27;20047;-85
2021/08/21 03:36:54;;;;;;;9.00;5.50;;;;;;;;;;5147704;27;20298;-84
2021/08/21 03:39:21;;;;;;;6.28;4.78;;;;;;;;;;5149024;27;20047;-85
2021/08/21 03:41:48;;;;;;;6.65;4.85;;;;;;;;;;5156918;27;20043;-85
2021/08/21 03:44:15;;;;;;;7.22;5.05;;;;;;;;;;5157050;27;20026;-85
2021/08/21 03:46:43;;;;;;;6.75;5.15;;;;;;;;;;5148452;27;20047;-85
2021/08/21 03:49:10;;;;;;;6.60;5.85;;;;;;;;;;5148626;27;20068;-85
2021/08/21 03:51:37;;;;;;;6.18;5.53;;;;;;;;;;5147621;27;20047;-84
2021/08/21 03:54:04;;;;;;;7.95;5.82;;;;;;;;;;5147912;27;20492;-86
2021/08/21 03:56:30;;;;;;;7.38;5.68;;;;;;;;;;5147387;27;20123;-84
2021/08/21 03:58:57;;;;;;;7.18;5.60;;;;;;;;;;5147337;27;20039;-84
2021/08/21 04:01:24;;;;;;;6.63;5.15;;;;;;;;;;5147208;27;20519;-84
2021/08/21 04:03:52;;;;;;;6.80;4.90;;;;;;;;;;5145693;27;20043;-85
2021/08/21 04:06:20;;;;;;;7.05;5.80;;;;;;;;;;5144244;27;20258;-86
2021/08/21 04:08:46;;;;;;;8.32;5.35;;;;;;;;;;5145287;27;20043;-85
2021/08/21 04:11:13;;;;;;;6.68;4.75;;;;;;;;;;5148132;27;20043;-85
2021/08/21 04:13:40;;;;;;;6.32;5.10;;;;;;;;;;5145461;27;20099;-85
2021/08/21 04:16:07;;;;;;;7.22;5.30;;;;;;;;;;5143898;27;20050;-85
2021/08/21 04:18:35;;;;;;;8.18;5.30;;;;;;;;;;5143541;27;20062;-85
2021/08/21 04:21:03;;;;;;;7.38;5.13;;;;;;;;;;5144013;27;20043;-85
2021/08/21 04:23:30;;;;;;;6.72;5.43;;;;;;;;;;5143682;27;20051;-85
2021/08/21 04:25:59;;;;;;;6.72;5.18;;;;;;;;;;5144055;27;20054;-86
2021/08/21 04:28:26;;;;;;;7.03;5.53;;;;;;;;;;5143968;27;20047;-85
2021/08/21 04:30:53;;;;;;;7.22;5.57;;;;;;;;;;5144292;27;20283;-86
2021/08/21 04:33:20;;;;;;;7.65;5.55;;;;;;;;;;5144330;27;20047;-86
2021/08/21 04:35:47;;;;;;;8.32;5.45;;;;;;;;;;5143928;27;20081;-86
2021/08/21 04:38:15;;;;;;;7.00;5.40;;;;;;;;;;5143984;22;20523;-84
2021/08/21 04:40:44;;;;;;;6.97;5.40;;;;;;;;;;5099752;28;20106;-82
2021/08/21 04:43:11;;;;;;;7.57;5.50;;;;;;;;;;5107683;28;20043;-83
2021/08/21 04:45:38;;;;;;;7.55;6.25;;;;;;;;;;5109546;28;20048;-84
2021/08/21 04:48:05;;;;;;;8.27;6.35;;;;;;;;;;5110401;28;20048;-81
2021/08/21 04:50:35;;;;;;;8.18;6.40;;;;;;;;;;5104469;28;20048;-84
2021/08/21 04:53:02;;;;;;;7.20;6.32;;;;;;;;;;5100825;28;20063;-84
2021/08/21 04:55:34;;;;;;;6.80;5.95;;;;;;;;;;5109714;28;20044;-83
2021/08/21 04:58:01;;;;;;;7.35;5.63;;;;;;;;;;5110488;28;20082;-83
2021/08/21 05:00:29;;;;;;;8.35;6.35;;;;;;;;;;5104519;28;20472;-84
2021/08/21 05:02:57;;;;;;;8.18;5.90;;;;;;;;;;5098126;28;20067;-83
2021/08/21 05:05:25;;;;;;;8.30;5.45;;;;;;;;;;5097130;28;20105;-84
2021/08/21 05:07:51;;;;;;;8.35;6.47;;;;;;;;;;5097489;28;20463;-84
2021/08/21 05:10:18;;;;;;;9.13;6.68;;;;;;;;;;5096999;28;20052;-84
2021/08/21 05:12:46;;;;;;;10.70;7.75;;;;;;;;;;5091197;28;20070;-84
2021/08/21 05:15:15;;;;;;;11.20;8.43;;;;;;;;;;5081741;28;20075;-83
2021/08/21 05:17:46;;;;;;;8.98;8.07;;;;;;;;;;5080037;28;20075;-84
2021/08/21 05:20:28;;;;;;;8.98;6.95;;;;;;;;;;5078617;28;20048;-84
2021/08/21 05:23:06;;;;;;;9.52;6.18;;;;;;;;;;5078717;28;20048;-84
2021/08/21 05:25:39;;;;;;;6.72;5.85;;;;;;;;;;5079156;28;20072;-83
2021/08/21 05:28:09;;;;;;;8.45;7.07;;;;;;;;;;5082374;28;20136;-83
2021/08/21 05:30:38;;;;;;;7.27;6.30;;;;;;;;;;5083051;28;20594;-84
2021/08/21 05:33:10;;;;;;;7.88;6.53;;;;;;;;;;5079763;28;20320;-84
2021/08/21 05:35:37;;;;;;;11.23;6.90;;;;;;;;;;5078569;28;20041;-83
2021/08/21 05:38:04;;;;;;;9.15;6.70;;;;;;;;;;5086786;28;20117;-83
2021/08/21 05:40:32;;;;;;;8.18;6.00;;;;;;;;;;5100297;28;20071;-84
2021/08/21 05:42:59;;;;;;;8.77;6.18;;;;;;;;;;5099608;28;20560;-83
2021/08/21 05:45:31;;;;;;;8.02;7.03;;;;;;;;;;5098291;28;20051;-83
2021/08/21 05:48:02;;;;;;;12.68;9.18;;;;;;;;;;5098812;28;20463;-84
2021/08/21 05:50:29;;;;;;;10.05;8.43;;;;;;;;;;5099740;28;20432;-83
2021/08/21 05:52:56;;;;;;;9.90;7.95;;;;;;;;;;5098764;28;20074;-84
2021/08/21 05:55:24;;;;;;;10.95;7.93;;;;;;;;;;5097864;28;20059;-84
2021/08/21 05:57:51;;;;;;;7.85;7.00;;;;;;;;;;5098592;28;20105;-84
2021/08/21 06:00:19;;;;;;;8.85;6.70;;;;;;;;;;5099160;28;20040;-84
2021/08/21 06:02:47;;;;;;;9.40;7.00;;;;;;;;;;5112246;28;20443;-82
2021/08/21 06:05:14;;;;;;;8.48;7.03;;;;;;;;;;5118128;28;20097;-83
2021/08/21 06:07:41;;;;;;;10.40;6.78;;;;;;;;;;5119046;28;20381;-83
2021/08/21 06:10:11;;;;;;;9.10;7.60;;;;;;;;;;5120656;28;20055;-83
2021/08/21 06:12:38;;;;;;;8.57;6.50;;;;;;;;;;5118576;28;20052;-83
2021/08/21 06:15:06;;;;;;;8.00;6.53;;;;;;;;;;5117897;28;20066;-83
2021/08/21 06:17:33;;;;;;;8.05;6.40;;;;;;;;;;5117524;28;20123;-83
2021/08/21 06:20:03;;;;;;;8.88;7.35;;;;;;;;;;5117598;28;20107;-83
2021/08/21 06:22:30;;;;;;;8.40;7.15;;;;;;;;;;5117992;28;20399;-83
2021/08/21 06:24:57;;;;;;;9.55;8.55;;;;;;;;;;5117055;28;20051;-82
2021/08/21 06:27:23;;;;;;;11.88;9.75;;;;;;;;;;5114673;28;20040;-82
2021/08/21 06:29:50;;;;;;;8.95;7.32;;;;;;;;;;5115488;28;20412;-82
2021/08/21 06:32:18;;;;;;;10.55;7.57;;;;;;;;;;5115295;28;20051;-82
2021/08/21 06:34:44;;;;;;;11.10;8.25;;;;;;;;;;5115773;28;20139;-82
2021/08/21 06:37:15;;;;;;;9.85;8.85;;;;;;;;;;5115853;28;20047;-86
2021/08/21 06:39:42;;;;;;;9.43;7.75;;;;;;;;;;5128488;28;20062;-85
2021/08/21 06:42:10;;;;;;;8.80;7.00;;;;;;;;;;5138654;28;20036;-88
2021/08/21 06:44:37;;;;;;;12.52;11.23;;;;;;;;;;5118860;28;20056;-81
2021/08/21 06:47:04;;;;;;;9.65;6.82;;;;;;;;;;5114409;28;20052;-81
2021/08/21 06:49:31;;;;;;;8.95;7.45;;;;;;;;;;5114071;28;20574;-81
2021/08/21 06:51:58;;;;;;;9.07;7.75;;;;;;;;;;5114684;28;20105;-81
2021/08/21 06:54:26;;;;;;;9.18;7.55;;;;;;;;;;5114378;28;20048;-83
2021/08/21 06:56:53;;;;;;;10.77;8.73;;;;;;;;;;5113541;28;20047;-82
2021/08/21 06:59:21;;;;;;;8.75;7.47;;;;;;;;;;5114597;28;20054;-82
2021/08/21 07:01:47;;;;;;;8.52;7.18;;;;;;;;;;5115379;28;20073;-83
2021/08/21 07:04:15;;;;;;;15.02;7.82;;;;;;;;;;5115922;28;20070;-81
2021/08/21 07:06:42;;;;;;;7.95;6.40;;;;;;;;;;5115102;28;20043;-82
2021/08/21 07:09:09;;;;;;;7.63;6.45;;;;;;;;;;5116173;28;20047;-84
2021/08/21 07:11:37;;;;;;;8.32;6.53;;;;;;;;;;5117111;28;20047;-82
2021/08/21 07:14:04;;;;;;;7.93;6.53;;;;;;;;;;5115566;28;20048;-82
2021/08/21 07:16:31;;;;;;;7.75;5.60;;;;;;;;;;5115854;28;20071;-83
2021/08/21 07:18:58;;;;;;;7.53;5.80;;;;;;;;;;5117730;28;20052;-83
2021/08/21 07:21:25;;;;;;;6.55;5.68;;;;;;;;;;5117581;28;20044;-83
2021/08/21 07:23:51;;;;;;;7.72;6.30;;;;;;;;;;5117265;28;20048;-82
2021/08/21 07:26:18;;;;;;;7.57;5.22;;;;;;;;;;5117028;28;20090;-83
2021/08/21 07:28:46;;;;;;;6.38;5.03;;;;;;;;;;5116974;28;20040;-83
2021/08/21 07:31:13;;;;;;;6.90;6.20;;;;;;;;;;5117445;28;20059;-83
2021/08/21 07:33:43;;;;;;;10.20;7.38;;;;;;;;;;5117390;28;20044;-83
2021/08/21 07:36:10;;;;;;;8.98;6.80;;;;;;;;;;5116827;28;20527;-83
2021/08/21 07:38:38;;;;;;;8.65;7.72;;;;;;;;;;5118370;28;20074;-84
2021/08/21 07:41:05;;;;;;;7.85;6.47;;;;;;;;;;5128309;28;20059;-82
2021/08/21 07:43:32;;;;;;;7.22;6.30;;;;;;;;;;5124208;28;20050;-82
2021/08/21 07:46:00;;;;;;;6.72;5.93;;;;;;;;;;5116114;28;20404;-82
2021/08/21 07:48:28;;;;;;;7.25;6.47;;;;;;;;;;5115349;28;20044;-83
2021/08/21 07:50:55;;;;;;;7.03;5.15;;;;;;;;;;5108791;28;20078;-81
2021/08/21 07:53:23;;;;;;;7.30;5.72;;;;;;;;;;5109680;28;20454;-83
2021/08/21 07:55:49;;;;;;;6.88;5.57;;;;;;;;;;5111851;28;20048;-82
2021/08/21 07:58:16;;;;;;;6.40;5.32;;;;;;;;;;5112532;28;20086;-82
2021/08/21 08:00:43;;;;;;;8.43;5.68;;;;;;;;;;5112940;28;20078;-81
2021/08/21 08:03:14;;;;;;;8.60;7.22;;;;;;;;;;5129016;28;20043;-81
2021/08/21 08:05:41;;;;;;;9.82;7.10;;;;;;;;;;5125179;28;20031;-82
2021/08/21 08:08:09;;;;;;;8.30;6.53;;;;;;;;;;5123396;28;20058;-83
2021/08/21 08:10:36;;;;;;;9.02;6.80;;;;;;;;;;5122152;28;20059;-82
2021/08/21 08:13:05;;;;;;;7.70;5.57;;;;;;;;;;5123754;28;20047;-84
2021/08/21 08:15:32;;;;;;;9.13;7.88;;;;;;;;;;5124682;28;20142;-83
2021/08/21 08:17:59;;;;;;;8.82;7.18;;;;;;;;;;5124566;28;20047;-82
2021/08/21 08:20:27;;;;;;;8.07;5.43;;;;;;;;;;5124117;28;20420;-83
2021/08/21 08:22:59;;;;;;;7.75;5.82;;;;;;;;;;5123725;28;20407;-84
2021/08/21 08:25:26;;;;;;;8.95;6.32;;;;;;;;;;5124022;28;20043;-83
2021/08/21 08:27:53;;;;;;;9.60;6.40;;;;;;;;;;5123534;28;20101;-83
2021/08/21 08:30:20;;;;;;;10.18;6.20;;;;;;;;;;5123354;28;20126;-84
2021/08/21 08:32:47;;;;;;;14.55;7.55;;;;;;;;;;5124233;28;20450;-84
2021/08/21 08:35:14;;;;;;;11.48;8.60;;;;;;;;;;5121830;28;20048;-84
2021/08/21 08:37:42;;;;;;;9.45;6.95;;;;;;;;;;5102210;28;20103;-84
2021/08/21 08:40:10;;;;;;;7.75;5.65;;;;;;;;;;5081967;28;20063;-83
2021/08/21 08:42:40;;;;;;;12.68;7.57;;;;;;;;;;5081631;28;20052;-84
2021/08/21 08:45:08;;;;;;;9.30;6.47;;;;;;;;;;5080245;28;20055;-83
2021/08/21 08:47:35;;;;;;;10.38;6.60;;;;;;;;;;5081159;28;20045;-84
2021/08/21 08:50:04;;;;;;;12.10;6.68;;;;;;;;;;5079734;28;20778;-84
2021/08/21 08:52:33;;;;;;;11.15;7.32;;;;;;;;;;5080411;28;20131;-83
2021/08/21 08:55:01;;;;;;;9.88;6.32;;;;;;;;;;5079743;28;20106;-84
2021/08/21 08:57:35;;;;;;;10.32;7.50;;;;;;;;;;5080150;28;20515;-83
2021/08/21 09:00:05;;;;;;;9.98;6.93;;;;;;;;;;5079883;28;20059;-83
2021/08/21 09:02:34;;;;;;;7.18;6.13;;;;;;;;;;5091776;28;20048;-84
2021/08/21 09:05:04;;;;;;;6.75;5.65;;;;;;;;;;5115659;28;20048;-81
2021/08/21 09:07:42;;;;;;;9.83;6.63;;;;;;;;;;5118122;28;20050;-83
2021/08/21 09:10:20;;;;;;;6.53;5.53;;;;;;;;;;5084775;28;20128;-84
2021/08/21 09:12:56;;;;;;;9.10;5.90;;;;;;;;;;5090172;28;20127;-84
2021/08/21 09:15:25;;;;;;;5.03;4.20;;;;;;;;;;5091193;28;20126;-84
2021/08/21 09:18:10;;;;;;;9.70;5.53;;;;;;;;;;5096624;28;20048;-83
2021/08/21 09:20:52;;;;;;;5.97;5.15;;;;;;;;;;5097186;28;20048;-84
2021/08/21 09:23:22;;;;;;;6.78;5.28;;;;;;;;;;5097249;28;20048;-87
2021/08/21 09:25:54;;;;;;;8.15;4.88;;;;;;;;;;5098353;28;20048;-87
2021/08/21 09:28:24;;;;;;;5.88;5.00;;;;;;;;;;5097486;28;20044;-86
2021/08/21 09:31:06;;;;;;;18.25;5.90;;;;;;;;;;5096022;28;20135;-85
2021/08/21 09:33:34;;;;;;;8.45;4.80;;;;;;;;;;5096245;28;20122;-83
2021/08/21 09:36:01;;;;;;;5.75;4.90;;;;;;;;;;5096835;28;20052;-87
2021/08/21 09:38:33;;;;;;;6.63;5.03;;;;;;;;;;5108624;28;20432;-86
2021/08/21 09:41:04;;;;;;;6.05;4.72;;;;;;;;;;5116601;28;20064;-86
2021/08/21 09:43:32;;;;;;;5.78;4.88;;;;;;;;;;5115979;28;20101;-83
2021/08/21 09:46:14;;;;;;;6.40;5.00;;;;;;;;;;5117305;28;20047;-92
2021/08/21 09:49:05;;;;;;;6.15;4.80;;;;;;;;;;5116336;28;20044;-85
2021/08/21 09:51:43;;;;;;;8.43;6.55;;;;;;;;;;5116825;28;20447;-85
2021/08/21 09:54:19;;;;;;;9.63;6.55;;;;;;;;;;5116703;28;20070;-89
2021/08/21 09:56:55;;;;;;;6.72;5.32;;;;;;;;;;5114944;28;20043;-87
2021/08/21 09:59:34;;;;;;;6.97;5.10;;;;;;;;;;5114569;28;20089;-83
2021/08/21 10:02:06;;;;;;;6.15;5.13;;;;;;;;;;5116795;28;20051;-84
2021/08/21 10:04:33;;;;;;;7.25;4.97;;;;;;;;;;5117158;28;20062;-84
2021/08/21 10:07:03;;;;;;;5.93;4.63;;;;;;;;;;5120077;28;20035;-86
2021/08/21 10:09:30;;;;;;;6.22;4.75;;;;;;;;;;5125259;28;20047;-83
2021/08/21 10:12:00;;;;;;;5.25;4.38;;;;;;;;;;5102078;28;20048;-85
2021/08/21 10:14:29;;;;;;;5.75;4.45;;;;;;;;;;5098394;28;20044;-84
2021/08/21 10:16:56;;;;;;;6.35;4.22;;;;;;;;;;5109237;28;20098;-84
2021/08/21 10:19:28;;;;;;;5.97;4.72;;;;;;;;;;5115969;28;20113;-83
2021/08/21 10:21:59;;;;;;;5.78;4.20;;;;;;;;;;5117387;28;20130;-86
2021/08/21 10:24:34;;;;;;;19.08;6.82;;;;;;;;;;5118375;28;20043;-83
2021/08/21 10:27:08;;;;;;;6.40;4.43;;;;;;;;;;5124892;28;20054;-84
2021/08/21 10:29:36;;;;;;;5.90;4.28;;;;;;;;;;5125769;28;20058;-83
2021/08/21 10:32:03;;;;;;;5.47;4.30;;;;;;;;;;5121477;28;20048;-84
2021/08/21 10:34:51;;;;;;;7.05;4.82;;;;;;;;;;5119260;28;20084;-82
2021/08/21 10:37:32;;;;;;;5.43;4.53;;;;;;;;;;5118806;28;20079;-82
2021/08/21 10:40:39;;;;;;;7.25;4.90;;;;;;;;;;5118261;28;20104;-85
2021/08/21 10:43:08;;;;;;;5.40;4.68;;;;;;;;;;5110073;28;20047;-87
2021/08/21 10:45:52;;;;;;;5.53;4.60;;;;;;;;;;5116270;28;20054;-88
2021/08/21 10:48:54;;;;;;;5.80;4.60;;;;;;;;;;5117274;28;20079;-83
2021/08/21 10:51:34;;;;;;;5.72;4.88;;;;;;;;;;5113857;28;20105;-85
2021/08/21 10:54:24;;;;;;;6.43;4.90;;;;;;;;;;5116929;28;20093;-84
2021/08/21 10:56:52;;;;;;;7.45;5.53;;;;;;;;;;5117102;28;20518;-83
2021/08/21 10:59:41;;;;;;;7.40;5.32;;;;;;;;;;5115420;28;20043;-86
2021/08/21 11:02:41;;;;;;;6.33;5.37;;;;;;;;;;5106817;28;20051;-84
2021/08/21 11:05:19;;;;;;;7.07;4.68;;;;;;;;;;5080405;28;20372;-85
2021/08/21 11:07:46;;;;;;;6.10;5.28;;;;;;;;;;5095279;28;20048;-85
2021/08/21 11:10:14;;;;;;;5.55;4.50;;;;;;;;;;5097725;28;20102;-84
2021/08/21 11:12:43;;;;;;;5.88;4.68;;;;;;;;;;5095521;28;20059;-86
2021/08/21 11:15:34;;;;;;;5.50;4.38;;;;;;;;;;5115939;28;20052;-86
2021/08/21 11:31:54;;;;;;;7.50;5.03;;;;;;;;;;4936710;29;20072;-86
2021/08/21 11:34:24;;;;;;;4.93;4.13;;;;;;;;;;4925707;28;20054;-88
2021/08/21 11:39:35;;;;;;;6.68;4.72;;;;;;;;;;5072812;28;20295;-88
2021/08/21 11:42:12;;;;;;;7.15;5.47;;;;;;;;;;5117339;28;20404;-85
2021/08/21 11:45:04;;;;;;;;;;;;;;;;;;;;;
2021/08/21 12:03:34;;;;;;;6.38;4.80;;;;;;;;;;5116199;28;20054;-85
2021/08/21 12:17:02;;;;;;;6.60;4.90;;;;;;;;;;5042071;28;20040;-91
2021/08/21 12:57:22;;;;;;;6.85;5.15;;;;;;;;;;5075270;28;20048;-85
2021/08/21 13:00:00;;;;;;;6.65;4.93;;;;;;;;;;5076303;28;20056;-85
2021/08/21 13:02:27;;;;;;;7.13;4.78;;;;;;;;;;5086168;28;20040;-85
2021/08/21 13:05:00;;;;;;;6.85;4.97;;;;;;;;;;5096703;28;20040;-86
2021/08/21 13:07:45;;;;;;;5.88;4.72;;;;;;;;;;5103262;28;20048;-89
2021/08/21 13:10:14;;;;;;;5.55;4.30;;;;;;;;;;5098407;28;20071;-90
2021/08/21 13:12:48;;;;;;;5.53;4.30;;;;;;;;;;5091704;28;20048;-89
2021/08/21 13:15:17;;;;;;;6.47;4.40;;;;;;;;;;5077163;28;20071;-89
2021/08/21 13:17:45;;;;;;;6.15;4.60;;;;;;;;;;5073890;28;20053;-89
2021/08/21 13:20:13;;;;;;;8.30;4.60;;;;;;;;;;5074252;28;20052;-89
2021/08/21 13:22:41;;;;;;;6.45;4.30;;;;;;;;;;5074621;28;20094;-89
2021/08/21 13:25:11;;;;;;;6.93;4.30;;;;;;;;;;5074991;28;20550;-89
2021/08/21 13:27:39;;;;;;;5.63;4.50;;;;;;;;;;5074631;28;20044;-89
2021/08/21 13:30:11;;;;;;;5.10;4.07;;;;;;;;;;5074631;28;20497;-89
2021/08/21 13:32:38;;;;;;;5.90;4.10;;;;;;;;;;5074595;28;20457;-89
2021/08/21 13:35:06;;;;;;;5.10;3.95;;;;;;;;;;5074310;28;20059;-88
2021/08/21 13:37:32;;;;;;;7.00;4.15;;;;;;;;;;5074124;28;20060;-89
2021/08/21 13:39:59;;;;;;;6.25;4.82;;;;;;;;;;5076444;28;20102;-89
2021/08/21 13:42:26;;;;;;;6.60;5.22;;;;;;;;;;5074013;28;20045;-88
2021/08/21 13:44:53;;;;;;;5.85;4.63;;;;;;;;;;5073872;28;20044;-89
2021/08/21 13:47:23;;;;;;;5.25;4.18;;;;;;;;;;5073100;28;20536;-89
2021/08/21 13:49:49;;;;;;;;;;;;;;;;;;5074645;28;20052;-90
2021/08/21 13:52:16;;;;;;;5.47;4.30;;;;;;;;;;5075946;28;19924;-90
2021/08/21 13:54:43;;;;;;;5.63;4.10;;;;;;;;;;5089632;28;20036;-91
2021/08/21 13:57:12;;;;;;;5.63;4.50;;;;;;;;;;5097890;28;20043;-90
2021/08/21 13:59:41;;;;;;;6.45;4.32;;;;;;;;;;5080680;28;20091;-90
2021/08/21 14:02:07;;;;;;;5.00;4.07;;;;;;;;;;5075428;28;20048;-90
2021/08/21 14:04:36;;;;;;;5.82;4.25;;;;;;;;;;5093541;28;20491;-90
2021/08/21 14:07:05;;;;;;;5.80;4.40;;;;;;;;;;5092871;28;20485;-90
2021/08/21 14:09:32;;;;;;;5.40;4.10;;;;;;;;;;5095322;28;20048;-90
2021/08/21 14:11:59;;;;;;;5.38;4.47;;;;;;;;;;5093592;28;20057;-90
2021/08/21 14:14:26;;;;;;;6.90;4.20;;;;;;;;;;5097435;28;20081;-90
2021/08/21 14:16:54;;;;;;;4.82;3.97;;;;;;;;;;5094590;28;20049;-90
2021/08/21 14:19:21;;;;;;;5.65;3.92;;;;;;;;;;5098900;28;20071;-90
2021/08/21 14:21:49;;;;;;;6.20;4.68;;;;;;;;;;5096896;28;20052;-90
2021/08/21 14:24:16;;;;;;;4.88;3.90;;;;;;;;;;5095373;28;20052;-90
2021/08/21 14:26:44;;;;;;;6.00;4.35;;;;;;;;;;5095522;28;20044;-90
2021/08/21 14:29:11;;;;;;;5.00;4.00;;;;;;;;;;5095374;28;20056;-90
2021/08/21 14:31:38;;;;;;;5.90;4.15;;;;;;;;;;5094891;28;20044;-90
2021/08/21 14:34:07;;;;;;;7.93;4.68;;;;;;;;;;5110702;28;20054;-90
2021/08/21 14:36:34;;;;;;;8.35;7.55;;;;;;;;;;5110277;28;20063;-90
2021/08/21 14:39:02;;;;;;;6.18;5.28;;;;;;;;;;5110138;28;20054;-90
2021/08/21 14:41:31;;;;;;;8.27;4.55;;;;;;;;;;5103061;28;20101;-91
2021/08/21 14:43:58;;;;;;;6.03;4.88;;;;;;;;;;5094155;28;20455;-91
2021/08/21 14:46:25;;;;;;;5.35;4.10;;;;;;;;;;5094485;28;20440;-90
2021/08/21 14:48:53;;;;;;;6.00;4.40;;;;;;;;;;5092787;28;20428;-91
2021/08/21 14:51:20;;;;;;;5.10;4.20;;;;;;;;;;5094195;28;20052;-91
2021/08/21 14:53:47;;;;;;;5.78;4.47;;;;;;;;;;5093831;28;20040;-91
2021/08/21 14:56:15;;;;;;;5.05;4.43;;;;;;;;;;5094986;28;20051;-91
2021/08/21 14:58:42;;;;;;;7.78;5.95;;;;;;;;;;5113521;28;20043;-91
2021/08/21 15:01:12;;;;;;;6.20;5.43;;;;;;;;;;5113395;28;20050;-91
2021/08/21 15:03:42;;;;;;;5.25;4.72;;;;;;;;;;5113682;28;20040;-91
2021/08/21 15:06:09;;;;;;;5.88;4.75;;;;;;;;;;5114921;28;20039;-90
2021/08/21 15:08:37;;;;;;;4.97;4.32;;;;;;;;;;5113896;28;20047;-90
2021/08/21 15:11:04;;;;;;;6.15;4.63;;;;;;;;;;5113337;28;20485;-90
2021/08/21 15:13:32;;;;;;;5.80;4.20;;;;;;;;;;5100088;28;20048;-90
2021/08/21 15:15:59;;;;;;;5.57;4.35;;;;;;;;;;5093692;28;20052;-90
2021/08/21 15:18:26;;;;;;;6.47;4.47;;;;;;;;;;5093056;28;20061;-90
2021/08/21 15:20:55;;;;;;;5.15;4.32;;;;;;;;;;5092678;28;20048;-90
2021/08/21 15:23:22;;;;;;;6.32;5.68;;;;;;;;;;5094263;28;20139;-90
2021/08/21 15:25:48;;;;;;;7.28;6.18;;;;;;;;;;5094668;28;20059;-90
2021/08/21 15:28:15;;;;;;;6.30;4.85;;;;;;;;;;5093090;28;20052;-90
2021/08/21 15:30:44;;;;;;;5.82;4.82;;;;;;;;;;5097465;28;20122;-91
2021/08/21 15:33:13;;;;;;;6.88;5.35;;;;;;;;;;5093005;28;20040;-91
2021/08/21 15:35:40;;;;;;;7.35;6.47;;;;;;;;;;5092985;28;20052;-90
2021/08/21 15:38:09;;;;;;;5.80;4.97;;;;;;;;;;5097581;28;20485;-90
2021/08/21 15:40:37;;;;;;;5.63;4.80;;;;;;;;;;5093057;28;20052;-90
2021/08/21 15:43:04;;;;;;;6.40;3.90;;;;;;;;;;5092873;28;20054;-91
2021/08/21 15:45:31;;;;;;;5.10;4.32;;;;;;;;;;5093027;28;20126;-90
2021/08/21 15:47:59;;;;;;;6.43;4.70;;;;;;;;;;5093460;28;20044;-90
2021/08/21 15:50:28;;;;;;;7.22;5.38;;;;;;;;;;5094760;28;20113;-90
2021/08/21 15:52:55;;;;;;;5.82;4.45;;;;;;;;;;5093379;28;20060;-90
2021/08/21 15:55:22;;;;;;;5.95;4.70;;;;;;;;;;5093995;28;20059;-90
2021/08/21 15:57:55;;;;;;;6.22;5.13;;;;;;;;;;5093813;28;20040;-90
2021/08/21 16:00:22;;;;;;;6.65;5.95;;;;;;;;;;5096391;28;20044;-90
2021/08/21 16:02:49;;;;;;;6.30;5.20;;;;;;;;;;5098498;28;20040;-91
2021/08/21 16:05:17;;;;;;;5.10;4.30;;;;;;;;;;5100353;28;20062;-91
2021/08/21 16:07:44;;;;;;;6.60;5.07;;;;;;;;;;5097671;28;20051;-90
2021/08/21 16:10:12;;;;;;;7.00;5.10;;;;;;;;;;5097977;28;20293;-91
2021/08/21 16:12:39;;;;;;;6.63;5.15;;;;;;;;;;5098131;28;20036;-91
2021/08/21 16:15:07;;;;;;;7.25;5.65;;;;;;;;;;5099380;28;20451;-90